Time;durP1;ratioP1;P1;durP2;ratioP2;P2;SDS_P1;SDS_P2;PMS_P1;PMS_P2;Temp;Humidity;BMP_temperature;BMP_pressure;BME280_temperature;BME280_humidity;BME280_pressure;Samples;Min_cycle;Max_cycle;Signal;HPM_P1;HPM_P2
2022/11/22 00:01:20;;;;;;;0.20;0.20;;;;;;;8.67;77.13;99100.44;5072786;28;20020;-78
2022/11/22 00:03:46;;;;;;;0.10;0.10;;;;;;;8.63;77.24;99099.69;5068610;28;20021;-78
2022/11/22 00:06:12;;;;;;;0.10;0.10;;;;;;;8.61;77.21;99100.69;5071623;28;20021;-79
2022/11/22 00:08:39;;;;;;;0.20;0.20;;;;;;;8.62;76.67;99105.03;5069162;28;20119;-78
2022/11/22 00:11:05;;;;;;;0.20;0.20;;;;;;;8.63;76.55;99102.34;5077805;28;20036;-78
2022/11/22 00:13:31;;;;;;;0.10;0.10;;;;;;;8.61;76.83;99101.56;5065518;28;20063;-79
2022/11/22 00:16:00;;;;;;;0.10;0.10;;;;;;;8.60;76.67;99105.13;5064716;28;20021;-79
2022/11/22 00:18:27;;;;;;;0.10;0.10;;;;;;;8.55;76.94;99097.38;5072377;28;20102;-80
2022/11/22 00:20:54;;;;;;;0.10;0.10;;;;;;;8.54;76.31;99094.81;5069000;28;20037;-79
2022/11/22 00:23:20;;;;;;;0.90;0.90;;;;;;;8.49;76.71;99094.13;5092113;28;20019;-77
2022/11/22 00:25:46;;;;;;;0.17;0.17;;;;;;;8.41;76.67;99100.53;5086100;28;20132;-78
2022/11/22 00:28:12;;;;;;;0.90;0.90;;;;;;;8.35;76.39;99115.72;5075228;28;20031;-78
2022/11/22 00:30:38;;;;;;;0.10;0.10;;;;;;;8.28;76.69;99114.25;5070998;28;20032;-79
2022/11/22 00:33:05;;;;;;;0.10;0.10;;;;;;;8.24;77.00;99105.59;5071986;28;20055;-79
2022/11/22 00:35:31;;;;;;;0.10;0.10;;;;;;;8.20;76.60;99103.97;5074535;28;20055;-79
2022/11/22 00:37:57;;;;;;;0.10;0.10;;;;;;;8.22;76.70;99107.44;5071576;28;20032;-78
2022/11/22 00:40:23;;;;;;;1.08;0.73;;;;;;;8.15;76.42;99109.44;5074831;28;20459;-79
2022/11/22 00:42:49;;;;;;;0.40;0.40;;;;;;;8.09;76.60;99110.53;5073260;28;20047;-79
2022/11/22 00:45:15;;;;;;;0.20;0.20;;;;;;;8.10;76.42;99106.97;5066941;28;20048;-78
2022/11/22 00:47:41;;;;;;;0.20;0.20;;;;;;;8.07;76.94;99107.13;5072688;28;20029;-78
2022/11/22 00:50:08;;;;;;;0.10;0.10;;;;;;;8.16;77.04;99115.56;5080417;28;20074;-77
2022/11/22 00:52:34;;;;;;;0.10;0.10;;;;;;;8.16;76.95;99110.31;5079054;28;20063;-78
2022/11/22 00:55:00;;;;;;;0.75;0.75;;;;;;;8.18;76.66;99113.75;5074427;28;20021;-78
2022/11/22 00:57:26;;;;;;;0.10;0.10;;;;;;;8.22;76.86;99117.97;5065929;28;20044;-78
2022/11/22 00:59:52;;;;;;;0.50;0.50;;;;;;;8.24;77.58;99118.78;5060574;28;20059;-78
2022/11/22 01:02:19;;;;;;;0.10;0.10;;;;;;;8.25;77.58;99112.59;5065560;28;20028;-79
2022/11/22 01:04:45;;;;;;;0.10;0.10;;;;;;;8.30;77.49;99118.56;5074710;28;20055;-79
2022/11/22 01:07:11;;;;;;;0.10;0.10;;;;;;;8.34;77.21;99104.31;5074886;28;20039;-79
2022/11/22 01:09:37;;;;;;;0.15;0.15;;;;;;;8.31;77.32;99093.03;5071028;28;20553;-79
2022/11/22 01:12:04;;;;;;;60.20;1.95;;;;;;;8.28;77.32;99096.63;5065979;28;20055;-79
2022/11/22 01:14:30;;;;;;;0.10;0.10;;;;;;;8.20;77.55;99096.06;5068852;28;20024;-78
2022/11/22 01:16:56;;;;;;;0.10;0.10;;;;;;;8.18;77.03;99097.91;5071278;28;20028;-78
2022/11/22 01:19:22;;;;;;;0.13;0.13;;;;;;;8.13;77.02;99103.38;5071892;28;20021;-78
2022/11/22 01:21:48;;;;;;;0.10;0.10;;;;;;;8.09;76.80;99109.69;5069170;28;20028;-79
2022/11/22 01:24:14;;;;;;;0.10;0.10;;;;;;;8.04;76.85;99106.38;5071813;28;20028;-78
2022/11/22 01:26:40;;;;;;;0.10;0.10;;;;;;;7.98;77.50;99101.31;5069572;28;20127;-78
2022/11/22 01:29:06;;;;;;;7.32;0.77;;;;;;;8.00;76.62;99105.63;5064505;28;20412;-78
2022/11/22 01:31:32;;;;;;;0.10;0.10;;;;;;;7.93;77.42;99104.13;5069061;28;20032;-78
2022/11/22 01:33:59;;;;;;;0.20;0.20;;;;;;;7.90;76.97;99106.84;5072625;28;20020;-78
2022/11/22 01:36:25;;;;;;;0.10;0.10;;;;;;;7.86;77.24;99113.16;5074758;28;20021;-78
2022/11/22 01:38:52;;;;;;;0.25;0.25;;;;;;;7.82;76.72;99106.28;5083668;28;20084;-77
2022/11/22 01:41:18;;;;;;;0.10;0.10;;;;;;;7.78;77.23;99103.75;5094388;28;20114;-77
2022/11/22 01:43:44;;;;;;;0.10;0.10;;;;;;;7.72;76.90;99101.34;5079013;28;20028;-79
2022/11/22 01:46:28;;;;;;;0.10;0.10;;;;;;;7.70;77.23;99111.09;5065542;28;20067;-78
2022/11/22 01:49:02;;;;;;;0.90;0.90;;;;;;;7.70;76.99;99116.38;5067932;28;20103;-78
2022/11/22 01:51:35;;;;;;;0.13;0.13;;;;;;;7.70;76.69;99119.00;5071737;28;20020;-79
2022/11/22 01:54:06;;;;;;;0.10;0.10;;;;;;;7.71;76.78;99114.59;5065383;28;20468;-78
2022/11/22 01:56:35;;;;;;;0.10;0.10;;;;;;;7.68;76.25;99115.56;5069496;28;20350;-79
2022/11/22 01:59:06;;;;;;;0.17;0.17;;;;;;;7.66;76.55;99112.09;5066244;28;20052;-78
2022/11/22 02:01:32;;;;;;;0.10;0.10;;;;;;;7.64;76.25;99113.06;5067107;28;20035;-78
2022/11/22 02:04:01;;;;;;;0.10;0.10;;;;;;;7.56;77.05;99116.00;5066581;28;20395;-78
2022/11/22 02:06:37;;;;;;;0.10;0.10;;;;;;;7.57;76.25;99133.53;5066443;28;20480;-78
2022/11/22 02:09:10;;;;;;;0.10;0.10;;;;;;;7.52;77.03;99130.19;5069501;28;20024;-78
2022/11/22 02:11:40;;;;;;;0.20;0.20;;;;;;;7.48;77.21;99133.84;5068682;28;20040;-78
2022/11/22 02:14:09;;;;;;;0.20;0.20;;;;;;;7.48;76.36;99128.56;5074014;28;20059;-79
2022/11/22 02:16:37;;;;;;;0.10;0.10;;;;;;;7.44;76.58;99133.97;5074218;28;20024;-78
2022/11/22 02:19:05;;;;;;;0.10;0.10;;;;;;;7.40;76.96;99132.34;5069926;28;20441;-78
2022/11/22 02:21:31;;;;;;;3.05;2.85;;;;;;;7.36;76.43;99125.44;5063528;28;20122;-79
2022/11/22 02:24:21;;;;;;;0.20;0.20;;;;;;;7.34;76.58;99122.03;5065037;28;20020;-78
2022/11/22 02:26:47;;;;;;;0.10;0.10;;;;;;;7.30;76.94;99123.03;5073480;28;20129;-78
2022/11/22 02:29:13;;;;;;;0.10;0.10;;;;;;;7.25;76.72;99117.06;5067067;28;20025;-78
2022/11/22 02:31:43;;;;;;;0.10;0.10;;;;;;;7.20;76.81;99126.88;5072643;28;20044;-78
2022/11/22 02:34:10;;;;;;;0.10;0.10;;;;;;;7.16;76.97;99122.66;5067635;28;20017;-79
2022/11/22 02:36:49;;;;;;;0.10;0.10;;;;;;;7.18;76.75;99126.94;5073675;28;20024;-78
2022/11/22 02:39:19;;;;;;;0.10;0.10;;;;;;;7.11;76.56;99136.81;5061833;28;20087;-77
2022/11/22 02:41:46;;;;;;;0.10;0.10;;;;;;;7.06;76.52;99138.72;5074344;28;20123;-78
2022/11/22 02:44:13;;;;;;;0.30;0.30;;;;;;;7.04;76.70;99153.75;5058727;28;20028;-78
2022/11/22 02:46:55;;;;;;;0.17;0.17;;;;;;;7.04;76.45;99156.38;5055945;28;20033;-78
2022/11/22 02:49:23;;;;;;;0.13;0.13;;;;;;;6.96;76.06;99158.38;5071200;28;20024;-78
2022/11/22 02:51:51;;;;;;;0.10;0.10;;;;;;;6.92;76.50;99159.41;5071319;28;20481;-78
2022/11/22 02:54:17;;;;;;;0.20;0.20;;;;;;;6.89;76.53;99165.63;5072813;28;20037;-78
2022/11/22 02:56:45;;;;;;;0.52;0.52;;;;;;;6.85;76.61;99161.34;5089816;28;20016;-77
2022/11/22 02:59:11;;;;;;;0.10;0.10;;;;;;;6.85;76.06;99165.78;5075563;28;20024;-78
2022/11/22 03:01:37;;;;;;;0.20;0.20;;;;;;;6.80;76.39;99172.06;5061303;28;20033;-78
2022/11/22 03:04:04;;;;;;;0.20;0.20;;;;;;;6.78;76.98;99168.59;5063577;28;20032;-78
2022/11/22 03:06:30;;;;;;;0.10;0.10;;;;;;;6.76;76.48;99173.03;5063208;28;20035;-78
2022/11/22 03:08:56;;;;;;;0.10;0.10;;;;;;;6.76;76.42;99169.56;5059119;28;20512;-78
2022/11/22 03:11:23;;;;;;;0.10;0.10;;;;;;;6.72;76.37;99171.41;5064308;28;20032;-77
2022/11/22 03:13:49;;;;;;;0.20;0.20;;;;;;;6.74;76.60;99177.50;5060869;28;20093;-77
2022/11/22 03:16:15;;;;;;;0.10;0.10;;;;;;;6.74;76.13;99169.63;5059486;28;20029;-78
2022/11/22 03:18:41;;;;;;;0.10;0.10;;;;;;;6.73;76.27;99178.41;5065355;28;20083;-78
2022/11/22 03:21:09;;;;;;;0.10;0.10;;;;;;;6.71;76.50;99174.09;5067958;28;20032;-79
2022/11/22 03:23:35;;;;;;;0.17;0.17;;;;;;;6.70;76.67;99173.22;5067029;28;20060;-78
2022/11/22 03:26:10;;;;;;;0.25;0.25;;;;;;;6.72;76.33;99165.31;5069691;28;20064;-78
2022/11/22 03:28:36;;;;;;;0.20;0.20;;;;;;;6.70;76.38;99162.69;5070562;28;20062;-78
2022/11/22 03:31:05;;;;;;;0.10;0.10;;;;;;;6.67;76.69;99168.06;5065233;28;20484;-79
2022/11/22 03:33:31;;;;;;;0.20;0.20;;;;;;;6.66;76.19;99165.50;5061614;28;20098;-78
2022/11/22 03:35:58;;;;;;;0.10;0.10;;;;;;;6.65;76.62;99161.97;5061564;28;20483;-79
2022/11/22 03:38:24;;;;;;;0.10;0.10;;;;;;;6.65;76.29;99167.25;5070313;28;20028;-78
2022/11/22 03:40:50;;;;;;;0.20;0.20;;;;;;;6.62;76.60;99170.84;5062642;28;20029;-78
2022/11/22 03:43:16;;;;;;;0.10;0.10;;;;;;;6.59;76.53;99172.69;5068591;28;20028;-76
2022/11/22 03:45:46;;;;;;;0.10;0.10;;;;;;;6.59;76.19;99176.22;5074266;28;20009;-77
2022/11/22 03:48:12;;;;;;;0.10;0.10;;;;;;;6.59;75.43;99177.97;5070405;28;20047;-78
2022/11/22 03:50:39;;;;;;;0.10;0.10;;;;;;;6.58;75.86;99178.88;5077893;28;20089;-78
2022/11/22 03:53:05;;;;;;;0.10;0.10;;;;;;;6.53;75.85;99181.66;5070282;28;20028;-78
2022/11/22 03:55:31;;;;;;;0.10;0.10;;;;;;;6.51;75.91;99187.88;5070949;28;20021;-78
2022/11/22 03:57:57;;;;;;;0.10;0.10;;;;;;;6.52;76.03;99179.94;5071034;28;20074;-79
2022/11/22 04:00:23;;;;;;;0.10;0.10;;;;;;;6.52;75.69;99187.81;5064635;28;20477;-79
2022/11/22 04:02:49;;;;;;;0.10;0.10;;;;;;;6.49;75.34;99190.53;5067626;28;20020;-79
2022/11/22 04:05:16;;;;;;;0.15;0.15;;;;;;;6.39;75.56;99189.97;5063392;28;20048;-78
2022/11/22 04:07:42;;;;;;;0.17;0.17;;;;;;;6.44;75.39;99197.69;5071733;28;20035;-79
2022/11/22 04:10:08;;;;;;;0.43;0.43;;;;;;;6.41;75.42;99198.66;5064391;28;20020;-78
2022/11/22 04:12:35;;;;;;;0.10;0.10;;;;;;;6.39;75.39;99200.50;5078648;28;20078;-77
2022/11/22 04:15:08;;;;;;;0.10;0.10;;;;;;;6.35;75.35;99206.72;5086315;28;20089;-78
2022/11/22 04:17:43;;;;;;;0.20;0.20;;;;;;;6.32;75.09;99218.19;5071109;28;20496;-78
2022/11/22 04:25:45;;;;;;;0.20;0.20;;;;;;;6.20;75.20;99209.81;5123023;27;20131;-78
2022/11/22 04:28:13;;;;;;;0.10;0.10;;;;;;;6.18;75.05;99206.34;5122635;27;20398;-78
2022/11/22 04:33:25;;;;;;;0.10;0.10;;;;;;;6.08;75.42;99201.38;5130158;27;20058;-78
2022/11/22 04:35:52;;;;;;;0.20;0.20;;;;;;;6.05;75.51;99201.44;5122759;27;20034;-78
2022/11/22 04:38:19;;;;;;;0.20;0.20;;;;;;;6.02;75.54;99206.78;5117288;28;20028;-78
2022/11/22 04:40:45;;;;;;;0.10;0.10;;;;;;;6.01;75.35;99215.59;5123303;27;20024;-78
2022/11/22 04:46:15;;;;;;;0.10;0.10;;;;;;;5.94;75.80;99225.38;5107362;28;20039;-79
2022/11/22 04:48:41;;;;;;;0.10;0.10;;;;;;;5.95;75.56;99232.34;5105985;28;20390;-78
2022/11/22 04:53:57;;;;;;;0.38;0.38;;;;;;;5.92;75.93;99227.19;5107835;28;20059;-79
2022/11/22 04:56:23;;;;;;;0.10;0.10;;;;;;;5.91;76.05;99224.59;5110363;28;20054;-78
2022/11/22 04:58:50;;;;;;;0.10;0.10;;;;;;;5.89;75.96;99227.25;5101141;28;20024;-78
2022/11/22 05:01:17;;;;;;;0.10;0.10;;;;;;;5.88;76.09;99230.81;5110363;28;20027;-76
2022/11/22 05:03:43;;;;;;;0.10;0.10;;;;;;;5.89;76.19;99229.88;5110274;28;20032;-77
2022/11/22 05:06:12;;;;;;;0.10;0.10;;;;;;;5.88;75.57;99228.19;5111198;28;20599;-77
2022/11/22 05:08:38;;;;;;;0.10;0.10;;;;;;;5.90;75.95;99225.50;5097476;27;20092;-78
2022/11/22 05:11:04;;;;;;;0.20;0.20;;;;;;;5.91;76.08;99230.69;5112415;28;20046;-78
2022/11/22 05:13:34;;;;;;;0.10;0.10;;;;;;;5.93;76.40;99238.53;5107486;28;20043;-78
2022/11/22 05:16:02;;;;;;;0.40;0.40;;;;;;;5.95;76.49;99236.75;5118826;28;20026;-77
2022/11/22 05:18:29;;;;;;;2.72;2.40;;;;;;;6.05;76.49;99246.13;5121069;28;20048;-77
2022/11/22 05:20:55;;;;;;;0.10;0.10;;;;;;;6.09;76.70;99246.91;5118102;28;20036;-76
2022/11/22 05:23:53;;;;;;;0.10;0.10;;;;;;;6.18;76.65;99245.78;5122582;27;20042;-77
2022/11/22 05:26:09;;;;;;;0.13;0.13;;;;;;;6.26;76.60;99241.19;5115281;28;20024;-77
2022/11/22 05:28:37;;;;;;;0.10;0.10;;;;;;;6.33;76.84;99245.38;5124234;28;20026;-76
2022/11/22 05:31:16;;;;;;;0.10;0.10;;;;;;;6.42;76.82;99242.47;5127595;28;20043;-78
2022/11/22 05:33:43;;;;;;;0.20;0.20;;;;;;;6.45;76.54;99250.28;5110375;28;20025;-78
2022/11/22 05:36:10;;;;;;;0.20;0.20;;;;;;;6.48;76.66;99246.72;5094252;27;20024;-78
2022/11/22 05:38:37;;;;;;;0.17;0.17;;;;;;;6.56;76.19;99249.13;5088066;28;20029;-78
2022/11/22 05:41:06;;;;;;;0.30;0.30;;;;;;;6.58;76.25;99242.03;5088649;28;20031;-78
2022/11/22 05:43:32;;;;;;;0.10;0.10;;;;;;;6.63;76.40;99240.16;5087344;28;20436;-76
2022/11/22 05:46:17;;;;;;;0.10;0.10;;;;;;;6.67;75.74;99233.88;5094186;28;20067;-77
2022/11/22 05:48:45;;;;;;;0.10;0.10;;;;;;;6.69;75.90;99234.69;5082233;28;20025;-79
2022/11/22 05:51:14;;;;;;;0.20;0.20;;;;;;;6.75;75.88;99231.88;5091514;28;20054;-78
2022/11/22 05:53:42;;;;;;;0.10;0.10;;;;;;;6.76;75.45;99230.94;5097400;28;20396;-78
2022/11/22 05:56:10;;;;;;;0.20;0.20;;;;;;;6.80;75.76;99226.44;5092418;28;20019;-78
2022/11/22 05:58:36;;;;;;;0.10;0.10;;;;;;;6.81;75.82;99228.19;5087618;28;20044;-78
2022/11/22 06:03:40;;;;;;;0.10;0.10;;;;;;;6.83;74.80;99230.75;5054255;28;20393;-78
2022/11/22 06:06:08;;;;;;;0.10;0.10;;;;;;;6.85;75.00;99239.50;5045218;28;20039;-78
2022/11/22 06:08:38;;;;;;;0.10;0.10;;;;;;;6.84;74.84;99236.00;5042684;28;20087;-78
2022/11/22 06:11:13;;;;;;;0.10;0.10;;;;;;;6.86;74.92;99228.06;5046680;28;20064;-79
2022/11/22 06:13:42;;;;;;;0.20;0.20;;;;;;;6.87;74.54;99227.16;5044789;28;20121;-78
2022/11/22 06:16:10;;;;;;;0.20;0.20;;;;;;;6.88;74.71;99229.72;5040233;28;20056;-77
2022/11/22 06:18:36;;;;;;;0.10;0.10;;;;;;;6.91;74.80;99226.13;5049079;28;20381;-78
2022/11/22 06:21:06;;;;;;;0.10;0.10;;;;;;;6.92;74.58;99226.06;5048731;28;20021;-78
2022/11/22 06:23:33;;;;;;;0.10;0.10;;;;;;;6.91;74.56;99223.50;5049439;28;20706;-78
2022/11/22 06:26:02;;;;;;;0.20;0.20;;;;;;;6.90;74.48;99222.66;5048953;28;20052;-78
2022/11/22 06:28:29;;;;;;;0.10;0.10;;;;;;;6.89;74.73;99223.56;5045974;28;20038;-77
2022/11/22 06:31:15;;;;;;;0.10;0.10;;;;;;;6.94;74.45;99229.53;5044456;28;20033;-78
2022/11/22 06:33:42;;;;;;;0.15;0.15;;;;;;;6.87;74.11;99230.63;5043933;28;20474;-78
2022/11/22 06:36:13;;;;;;;0.20;0.20;;;;;;;6.91;74.35;99220.88;5045380;28;20025;-78
2022/11/22 06:38:41;;;;;;;0.20;0.20;;;;;;;6.88;74.28;99220.94;5047881;28;20029;-78
2022/11/22 06:41:09;;;;;;;0.35;0.35;;;;;;;6.89;74.20;99210.41;5044328;28;20029;-79
2022/11/22 06:43:37;;;;;;;0.10;0.10;;;;;;;6.82;74.20;99211.47;5056749;28;20051;-77
2022/11/22 06:46:05;;;;;;;0.20;0.20;;;;;;;6.76;74.08;99209.88;5058870;28;20037;-77
2022/11/22 06:48:34;;;;;;;0.13;0.13;;;;;;;6.66;73.85;99216.34;5069670;28;20069;-76
2022/11/22 06:51:03;;;;;;;0.10;0.10;;;;;;;6.65;73.91;99212.00;5061630;28;20039;-77
2022/11/22 06:53:31;;;;;;;0.20;0.20;;;;;;;6.60;73.89;99211.28;5055343;28;20034;-77
2022/11/22 06:56:04;;;;;;;0.20;0.20;;;;;;;6.65;73.89;99217.25;5051143;28;20071;-79
2022/11/22 06:58:30;;;;;;;0.17;0.17;;;;;;;6.66;73.87;99226.03;5054046;28;20038;-78
2022/11/22 07:01:15;;;;;;;0.20;0.20;;;;;;;6.74;74.06;99227.53;5046203;28;20021;-78
2022/11/22 07:03:43;;;;;;;0.13;0.13;;;;;;;6.73;74.00;99223.16;5065282;28;20040;-78
2022/11/22 07:06:11;;;;;;;0.10;0.10;;;;;;;6.67;74.16;99228.59;5066590;28;20024;-78
2022/11/22 07:08:38;;;;;;;0.20;0.20;;;;;;;6.69;74.74;99224.16;5052449;28;20548;-77
2022/11/22 07:11:08;;;;;;;0.20;0.20;;;;;;;6.74;74.56;99227.53;5062787;28;20029;-78
2022/11/22 07:13:35;;;;;;;0.17;0.17;;;;;;;6.75;74.32;99228.38;5064037;28;20127;-78
2022/11/22 07:16:03;;;;;;;0.20;0.20;;;;;;;6.79;73.91;99230.88;5054563;28;20044;-79
2022/11/22 07:18:29;;;;;;;0.20;0.20;;;;;;;6.79;74.03;99230.88;5049789;28;20044;-78
2022/11/22 07:21:05;;;;;;;0.15;0.15;;;;;;;6.84;74.31;99233.38;5038722;28;20025;-78
2022/11/22 07:23:32;;;;;;;0.20;0.20;;;;;;;6.82;73.79;99234.31;5043176;28;20037;-78
2022/11/22 07:25:58;;;;;;;0.10;0.10;;;;;;;6.87;74.44;99227.16;5038200;28;20041;-79
2022/11/22 07:28:25;;;;;;;0.10;0.10;;;;;;;6.91;74.27;99224.34;5046438;28;20107;-79
2022/11/22 07:30:51;;;;;;;0.10;0.10;;;;;;;6.87;74.01;99228.00;5045203;28;20033;-78
2022/11/22 07:33:17;;;;;;;0.10;0.10;;;;;;;6.95;73.82;99230.38;5039772;28;20033;-78
2022/11/22 07:35:43;;;;;;;0.10;0.10;;;;;;;6.93;73.94;99227.81;5043667;28;20083;-78
2022/11/22 07:38:10;;;;;;;2.65;1.85;;;;;;;6.97;73.97;99228.56;5037137;28;20059;-78
2022/11/22 07:40:36;;;;;;;0.10;0.10;;;;;;;6.97;73.93;99228.56;5046450;28;20029;-78
2022/11/22 07:43:02;;;;;;;0.10;0.10;;;;;;;7.01;74.11;99229.34;5035704;28;20630;-79
2022/11/22 07:45:29;;;;;;;0.10;0.10;;;;;;;7.01;73.52;99230.19;5037378;28;20032;-79
2022/11/22 07:47:57;;;;;;;0.10;0.10;;;;;;;7.05;73.98;99223.94;5041075;28;20129;-79
2022/11/22 07:50:23;;;;;;;0.10;0.10;;;;;;;7.18;73.98;99234.06;5035820;28;20037;-78
2022/11/22 07:52:55;;;;;;;0.10;0.10;;;;;;;7.25;73.84;99232.97;5030177;28;20087;-79
2022/11/22 07:55:21;;;;;;;0.20;0.20;;;;;;;7.19;72.97;99238.44;5036619;28;20104;-78
2022/11/22 07:57:47;;;;;;;0.10;0.10;;;;;;;7.17;73.04;99235.00;5035539;28;20037;-79
2022/11/22 08:00:14;;;;;;;0.20;0.20;;;;;;;7.20;72.81;99235.75;5034266;28;20033;-80
2022/11/22 08:02:40;;;;;;;0.10;0.10;;;;;;;7.21;72.58;99233.97;5045755;28;20037;-78
2022/11/22 08:05:07;;;;;;;0.20;0.20;;;;;;;7.28;73.25;99239.00;5046979;28;20048;-78
2022/11/22 08:07:33;;;;;;;0.20;0.20;;;;;;;7.29;72.69;99234.59;5033440;28;20505;-79
2022/11/22 08:09:59;;;;;;;0.10;0.10;;;;;;;7.29;72.30;99243.34;5049979;28;20404;-78
2022/11/22 08:12:25;;;;;;;0.93;0.93;;;;;;;7.31;72.76;99248.56;5043188;28;20577;-79
2022/11/22 08:14:51;;;;;;;0.20;0.20;;;;;;;7.33;72.05;99246.75;5030849;28;20041;-79
2022/11/22 08:17:17;;;;;;;4.20;0.95;;;;;;;7.36;72.66;99245.78;5033491;28;20032;-78
2022/11/22 08:19:43;;;;;;;0.20;0.20;;;;;;;7.42;72.39;99253.50;5029419;28;20414;-79
2022/11/22 08:22:09;;;;;;;0.30;0.30;;;;;;;7.46;72.32;99260.38;5027427;28;20517;-79
2022/11/22 08:24:35;;;;;;;0.15;0.15;;;;;;;7.42;72.17;99262.25;5029397;28;20021;-78
2022/11/22 08:27:01;;;;;;;0.10;0.10;;;;;;;7.52;72.46;99262.81;5021341;28;20386;-77
2022/11/22 08:29:28;;;;;;;0.20;0.20;;;;;;;7.48;71.69;99262.97;5026529;28;20029;-79
2022/11/22 08:31:54;;;;;;;0.10;0.10;;;;;;;7.55;71.57;99265.38;5035301;28;20030;-78
2022/11/22 08:34:20;;;;;;;0.10;0.10;;;;;;;7.58;72.00;99267.88;5033430;28;20033;-78
2022/11/22 08:36:46;;;;;;;0.20;0.20;;;;;;;7.62;71.75;99279.19;5032347;28;20111;-78
2022/11/22 08:39:13;;;;;;;0.10;0.10;;;;;;;7.62;72.36;99284.47;5035101;28;20035;-78
2022/11/22 08:41:39;;;;;;;1.48;1.38;;;;;;;7.65;71.72;99284.38;5027159;28;20092;-78
2022/11/22 08:44:05;;;;;;;0.20;0.20;;;;;;;7.60;71.95;99288.91;5032925;28;20029;-79
2022/11/22 08:46:31;;;;;;;0.13;0.13;;;;;;;7.59;71.90;99295.97;5019662;28;20053;-78
2022/11/22 08:48:57;;;;;;;0.17;0.17;;;;;;;7.62;72.04;99289.75;5022007;28;20112;-79
2022/11/22 08:51:23;;;;;;;0.20;0.20;;;;;;;7.72;71.90;99295.56;5031752;28;20415;-79
2022/11/22 08:53:49;;;;;;;0.10;0.10;;;;;;;7.63;71.89;99294.09;5039888;28;20366;-79
2022/11/22 08:56:16;;;;;;;0.10;0.10;;;;;;;7.69;71.98;99296.53;5032174;28;20041;-79
2022/11/22 08:58:42;;;;;;;0.15;0.15;;;;;;;7.69;71.78;99298.28;5036732;28;20056;-80
2022/11/22 09:01:11;;;;;;;0.65;0.65;;;;;;;7.71;71.42;99307.03;5029139;28;20025;-79
2022/11/22 09:03:38;;;;;;;0.17;0.17;;;;;;;7.73;71.72;99306.06;5020647;28;20061;-79
2022/11/22 09:06:07;;;;;;;0.10;0.10;;;;;;;7.72;71.91;99312.25;5020312;28;20109;-79
2022/11/22 09:08:34;;;;;;;0.20;0.20;;;;;;;7.73;71.92;99308.69;5031738;28;20112;-79
2022/11/22 09:11:02;;;;;;;1.20;0.45;;;;;;;7.75;71.24;99304.25;5055471;28;20104;-78
2022/11/22 09:13:29;;;;;;;0.10;0.10;;;;;;;7.73;71.12;99306.06;5054877;28;20089;-77
2022/11/22 09:15:59;;;;;;;0.20;0.20;;;;;;;7.73;71.73;99300.78;5042516;28;20516;-79
2022/11/22 09:18:25;;;;;;;0.10;0.10;;;;;;;7.80;71.23;99303.22;5044066;28;20065;-77
2022/11/22 09:20:58;;;;;;;0.15;0.15;;;;;;;7.84;71.68;99308.34;5054529;28;20045;-75
2022/11/22 09:23:24;;;;;;;0.20;0.20;;;;;;;7.82;71.10;99309.31;5039504;28;20108;-76
2022/11/22 09:25:57;;;;;;;0.60;0.60;;;;;;;7.85;70.91;99309.19;5037062;28;20032;-78
2022/11/22 09:28:24;;;;;;;0.15;0.15;;;;;;;7.82;71.05;99306.69;5035436;28;20517;-77
2022/11/22 09:30:57;;;;;;;0.95;0.95;;;;;;;7.89;71.19;99302.94;5035283;28;20033;-78
2022/11/22 09:33:23;;;;;;;;;;;;;;;8.00;70.61;99311.34;5036709;28;20037;-78
2022/11/22 09:35:49;;;;;;;0.10;0.10;;;;;;;7.92;71.41;99302.81;5037418;28;19915;-78
2022/11/22 09:38:15;;;;;;;0.20;0.20;;;;;;;7.94;71.19;99314.19;5034639;28;20026;-78
2022/11/22 09:40:45;;;;;;;0.20;0.20;;;;;;;7.97;71.18;99313.22;5031895;28;20040;-78
2022/11/22 09:43:26;;;;;;;0.20;0.20;;;;;;;8.06;70.41;99320.81;5034345;28;20547;-78
2022/11/22 09:48:47;;;;;;;0.28;0.28;;;;;;;8.13;70.52;99316.19;5059405;28;20369;-77
2022/11/22 09:51:20;;;;;;;0.30;0.30;;;;;;;8.09;69.89;99311.00;5046760;28;20031;-79
2022/11/22 09:53:57;;;;;;;;;;;;;;;8.23;70.19;99318.44;5053526;28;20456;-78
2022/11/22 09:56:26;;;;;;;0.20;0.20;;;;;;;8.12;70.43;99325.03;5041937;28;19909;-78
2022/11/22 09:58:57;;;;;;;0.10;0.10;;;;;;;8.09;69.59;99326.84;5052515;28;20036;-79
2022/11/22 10:01:32;;;;;;;0.10;0.10;;;;;;;8.15;69.75;99333.69;5046472;28;20021;-79
2022/11/22 10:04:06;;;;;;;0.20;0.20;;;;;;;8.16;69.83;99321.34;5049400;28;20047;-78
2022/11/22 10:06:36;;;;;;;0.10;0.10;;;;;;;8.16;70.28;99316.06;5051258;28;20033;-78
2022/11/22 10:12:17;;;;;;;0.17;0.17;;;;;;;8.20;69.39;99312.41;5109066;27;1186625;-77
2022/11/22 10:14:59;;;;;;;0.10;0.10;;;;;;;8.13;69.84;99314.41;5113598;28;20027;-78
2022/11/22 10:17:51;;;;;;;0.10;0.10;;;;;;;8.20;69.83;99312.41;5112851;28;20020;-79
2022/11/22 10:20:23;;;;;;;0.20;0.20;;;;;;;8.18;70.30;99314.25;5107139;28;20028;-78
2022/11/22 10:22:50;;;;;;;0.23;0.23;;;;;;;8.21;69.56;99324.69;5110145;28;20437;-79
2022/11/22 10:28:20;;;;;;;0.20;0.20;;;;;;;8.17;69.95;99320.44;5102913;27;20362;-78
2022/11/22 10:31:07;;;;;;;0.10;0.10;;;;;;;8.21;69.29;99315.00;5111056;28;20423;-77
2022/11/22 10:33:44;;;;;;;0.15;0.15;;;;;;;8.23;69.74;99322.88;5110429;28;20016;-77
2022/11/22 10:39:30;;;;;;;0.20;0.20;;;;;;;8.38;69.43;99310.91;5130183;27;20406;-78
2022/11/22 10:42:15;;;;;;;0.30;0.30;;;;;;;8.36;69.37;99312.72;5112603;28;20081;-78
2022/11/22 10:45:09;;;;;;;0.10;0.10;;;;;;;8.32;69.13;99309.34;5119040;28;20020;-78
2022/11/22 10:58:44;;;;;;;0.10;0.10;;;;;;;8.58;69.68;99282.06;5121765;27;20379;-78
2022/11/22 11:03:53;;;;;;;0.10;0.10;;;;;;;8.64;69.45;99280.94;5094430;27;20437;-78
2022/11/22 11:06:43;;;;;;;0.10;0.10;;;;;;;8.72;68.95;99288.59;5090652;28;20032;-78
2022/11/22 11:09:21;;;;;;;0.15;0.15;;;;;;;8.65;68.55;99274.75;5097705;28;20020;-77
2022/11/22 11:11:51;;;;;;;0.10;0.10;;;;;;;8.72;68.93;99286.81;5099951;28;20055;-78
2022/11/22 11:14:26;;;;;;;0.10;0.10;;;;;;;8.74;68.57;99269.13;5100297;28;20020;-78
2022/11/22 11:16:52;;;;;;;0.10;0.10;;;;;;;8.78;69.18;99269.88;5113397;28;20078;-77
2022/11/22 11:19:21;;;;;;;0.10;0.10;;;;;;;8.91;68.38;99267.63;5112569;28;20055;-78
2022/11/22 11:22:06;;;;;;;0.20;0.20;;;;;;;8.96;68.62;99270.97;5112481;28;20609;-79
2022/11/22 11:24:34;;;;;;;0.22;0.22;;;;;;;9.03;68.20;99267.16;5101845;27;20032;-78
2022/11/22 11:27:01;;;;;;;0.20;0.20;;;;;;;8.92;68.34;99284.34;5096885;28;20066;-78
2022/11/22 11:29:40;;;;;;;0.20;0.20;;;;;;;9.11;67.98;99279.19;5110487;28;20084;-78
2022/11/22 11:32:13;;;;;;;0.10;0.10;;;;;;;9.08;67.35;99277.53;5115117;28;20062;-77
2022/11/22 11:34:46;;;;;;;0.10;0.10;;;;;;;9.09;67.64;99273.97;5106915;28;20036;-78
2022/11/22 11:37:30;;;;;;;0.10;0.10;;;;;;;9.11;68.08;99268.63;5084108;28;20033;-78
2022/11/22 11:39:56;;;;;;;3.50;2.83;;;;;;;9.06;67.84;99277.59;5080060;28;20032;-78
2022/11/22 11:45:26;;;;;;;2.90;2.72;;;;;;;9.02;67.81;99273.38;5111771;27;20135;-78
2022/11/22 11:47:52;;;;;;;0.13;0.13;;;;;;;8.98;68.09;99274.38;5115280;28;20114;-77
2022/11/22 11:50:23;;;;;;;0.10;0.10;;;;;;;8.97;68.64;99266.53;5111222;28;20035;-77
2022/11/22 11:55:33;;;;;;;0.20;0.20;;;;;;;8.98;68.26;99261.19;5083776;28;20366;-79
2022/11/22 11:58:02;;;;;;;0.10;0.10;;;;;;;9.02;68.85;99265.44;5056849;28;20509;-78
2022/11/22 12:00:37;;;;;;;0.13;0.13;;;;;;;9.03;69.23;99267.16;5050779;28;20463;-78
2022/11/22 12:03:09;;;;;;;0.20;0.20;;;;;;;9.17;69.09;99263.09;5053164;28;20085;-78
2022/11/22 12:05:35;;;;;;;0.20;0.20;;;;;;;9.25;69.39;99258.38;5050126;28;20040;-78
2022/11/22 12:08:02;;;;;;;0.20;0.20;;;;;;;9.30;69.00;99253.75;5047652;28;20033;-78
2022/11/22 12:15:57;;;;;;;0.10;0.10;;;;;;;9.44;68.02;99239.97;5097110;27;20900;-77
2022/11/22 12:21:24;;;;;;;0.17;0.17;;;;;;;9.51;68.08;99248.53;5053002;28;20881;-78
2022/11/22 12:24:15;;;;;;;0.20;0.20;;;;;;;9.50;67.60;99252.09;5034147;28;20525;-78
2022/11/22 12:26:42;;;;;;;0.10;0.10;;;;;;;9.51;67.41;99240.59;5035539;28;20021;-77
2022/11/22 12:29:11;;;;;;;0.10;0.10;;;;;;;9.44;67.55;99250.56;5031765;28;20026;-78
2022/11/22 12:34:49;;;;;;;0.20;0.20;;;;;;;9.51;67.22;99249.38;5095919;27;20912;-78
2022/11/22 12:37:24;;;;;;;0.15;0.15;;;;;;;9.48;66.98;99252.16;5083036;28;20044;-79
2022/11/22 12:39:53;;;;;;;0.13;0.13;;;;;;;9.47;67.07;99244.28;5091142;28;20492;-78
2022/11/22 12:42:44;;;;;;;0.20;0.20;;;;;;;9.59;67.19;99251.72;5092182;28;20031;-79
2022/11/22 12:45:23;;;;;;;0.10;0.10;;;;;;;9.53;67.04;99254.59;5089422;28;20040;-78
2022/11/22 12:47:51;;;;;;;0.32;0.32;;;;;;;9.50;67.30;99254.75;5088661;28;20090;-78
2022/11/22 12:50:28;;;;;;;0.10;0.10;;;;;;;9.50;67.10;99254.75;5086894;28;20044;-78